Little Boston, Washington
Current Conditions -  °F | °C
As of 11:53 PM on Tuesday 21 Oct 2014 (Local Time) from KPAE Reporting Station
Light Rain Light Rain  
Wind Chill: 56°   Ceiling: 5000
Heat Index: 56°   Visibility: 10mi
Dew Point: 47°   Wind: 12mph
Humidity: 72%   Direction: 150°SSE
Pressure: 29.74"   Gusts: NA
Location:  47.8525°N, 122.568°W
Report Text: KPAE 220653Z AUTO 15010KT 10SM -RA OVC050 13/08 A2974 RMK AO2 SLP070 P0002 T01330083
Loading
Personal Weather Stations






























Interactive Weather Map
Tropical Storm Tracking
New forecast layout! Learn more

10-Day Weather Forecast

Advertisements
Track Severe Weather on mobile